.
WxDataArchive / Data Records for 2007-09-22
2007-09-21 September 2007 2007-09-23

Data Records for Saturday, 22 September 2007

Time	Temp	Chill	HIndex	Humid	Dewpt	 Wind 	HiWind	WindDir	Rain 	Barom 
-----	----	-----	------	-----	-----	------	------	-------	-----	----- 
00:00	68.6	68.6	68.6	58	53.2	0	0	---	0.00	29.825 
00:05	68.4	68.4	68.4	58	53.0	0	1	112	0.00	29.826 
00:10	68.4	68.4	68.4	57	52.6	0	1	112	0.00	29.828 
00:15	68.6	68.6	68.6	57	52.7	0	2	225	0.00	29.826 
00:20	68.9	68.9	68.9	56	52.5	0	1	225	0.00	29.825 
00:25	69.3	69.3	69.3	55	52.4	0	2	248	0.00	29.826 
00:30	69.4	69.4	69.4	54	52.0	0	2	248	0.00	29.826 
00:35	69.6	69.6	69.6	54	52.2	0	2	248	0.00	29.825 
00:40	69.9	69.9	69.9	53	52.0	0	3	248	0.00	29.824 
00:45	70.3	70.3	70.3	52	51.8	0	2	270	0.00	29.825 
00:50	70.6	70.6	70.6	52	52.1	1	3	248	0.00	29.822 
00:55	70.9	70.9	70.9	51	51.9	0	3	248	0.00	29.823 
01:00	71.1	71.1	71.1	50	51.5	1	5	270	0.00	29.823 
01:05	71.3	71.3	71.3	50	51.7	1	5	248	0.00	29.816 
01:10	71.3	71.3	71.3	50	51.7	1	5	248	0.00	29.810 
01:15	71.5	71.5	71.5	50	51.9	1	4	248	0.00	29.811 
01:20	71.6	71.6	71.6	49	51.4	1	4	270	0.00	29.815 
01:25	71.6	71.6	71.6	49	51.4	1	4	270	0.00	29.809 
01:30	71.8	71.8	71.8	49	51.6	1	5	248	0.00	29.810 
01:35	71.8	71.8	71.8	49	51.6	1	3	248	0.00	29.814 
01:40	71.8	71.8	71.8	49	51.6	1	4	270	0.00	29.819 
01:45	71.8	71.8	71.8	50	52.1	1	4	248	0.00	29.819 
01:50	72.0	72.0	72.0	49	51.8	2	5	270	0.00	29.821 
01:55	72.0	72.0	72.0	50	52.3	1	6	270	0.00	29.823 
02:00	72.0	72.0	72.0	50	52.3	1	4	248	0.00	29.823 
02:05	71.8	71.8	71.8	51	52.7	1	3	248	0.00	29.823 
02:10	71.8	71.8	71.8	51	52.7	1	2	248	0.00	29.824 
02:15	71.8	71.8	71.8	51	52.7	1	3	248	0.00	29.824 
02:20	71.8	71.8	71.8	51	52.7	0	3	248	0.00	29.826 
02:25	71.8	71.8	71.8	51	52.7	2	4	248	0.00	29.824 
02:30	71.8	71.8	71.8	51	52.7	1	3	248	0.00	29.823 
02:35	71.8	71.8	71.8	52	53.2	1	4	225	0.00	29.824 
02:40	71.8	71.8	71.8	51	52.7	1	5	248	0.00	29.820 
02:45	71.8	71.8	71.8	52	53.2	1	4	248	0.00	29.818 
02:50	71.8	71.8	71.8	52	53.2	1	6	270	0.00	29.820 
02:55	72.0	72.0	72.0	52	53.4	1	6	248	0.00	29.821 
03:00	71.8	71.8	71.8	52	53.2	2	6	248	0.00	29.822 
03:05	71.6	71.6	71.6	53	53.5	1	3	225	0.00	29.821 
03:10	71.5	71.5	71.5	53	53.5	1	4	248	0.00	29.822 
03:15	71.3	71.3	71.3	53	53.3	1	3	248	0.00	29.821 
03:20	71.1	71.1	71.1	54	53.6	1	4	248	0.00	29.822 
03:25	70.9	70.9	70.9	54	53.4	1	3	225	0.00	29.823 
03:30	70.9	70.9	70.9	54	53.4	1	2	225	0.00	29.825 
03:35	70.9	70.9	70.9	54	53.4	1	3	248	0.00	29.833 
03:40	70.8	70.8	70.8	55	53.8	1	2	225	0.00	29.838 
03:45	70.8	70.8	70.8	55	53.8	1	3	248	0.00	29.840 
03:50	70.6	70.6	70.6	55	53.6	1	4	248	0.00	29.844 
03:55	70.9	70.9	70.9	55	53.9	1	4	270	0.00	29.843 
04:00	70.9	70.9	70.9	55	53.9	1	3	270	0.00	29.847 
04:05	70.8	70.8	70.8	55	53.8	1	2	292	0.00	29.853 
04:10	70.6	70.6	70.6	56	54.1	1	2	292	0.00	29.855 
04:15	70.4	70.4	70.4	57	54.4	1	2	292	0.00	29.857 
04:20	70.3	70.3	70.3	57	54.3	0	2	270	0.00	29.859 
04:25	70.1	70.1	70.1	57	54.1	1	2	270	0.00	29.861 
04:30	70.1	70.1	70.1	57	54.1	1	3	270	0.00	29.861 
04:35	70.1	70.1	70.1	57	54.1	1	2	270	0.00	29.863 
04:40	69.8	69.8	69.8	58	54.3	0	2	270	0.00	29.863 
04:45	69.6	69.6	69.6	58	54.2	0	2	270	0.00	29.862 
04:50	69.3	69.3	69.3	59	54.3	0	1	270	0.00	29.866 
04:55	68.9	68.9	68.9	59	54.0	0	1	270	0.00	29.872 
05:00	68.8	68.8	68.8	60	54.3	0	1	270	0.00	29.873 
05:05	68.4	68.4	68.4	61	54.4	0	1	270	0.00	29.878 
05:10	68.1	68.1	68.1	62	54.6	0	1	270	0.00	29.881 
05:15	67.8	67.8	67.8	63	54.7	0	1	270	0.00	29.886 
05:20	67.4	67.4	67.4	63	54.4	0	0	---	0.00	29.885 
05:25	67.3	67.3	67.3	64	54.7	0	0	---	0.00	29.885 
05:30	66.9	66.9	66.9	65	54.7	0	1	270	0.00	29.886 
05:35	66.9	66.9	66.9	65	54.7	0	1	270	0.00	29.892 
05:40	66.8	66.8	66.8	66	55.1	0	1	270	0.00	29.894 
05:45	66.4	66.4	66.4	66	54.7	0	0	---	0.00	29.900 
05:50	66.3	66.3	66.3	67	55.0	0	0	---	0.00	29.906 
05:55	66.0	66.0	66.0	68	55.1	0	0	---	0.00	29.909 
06:00	66.1	66.1	66.1	70	56.0	1	2	270	0.00	29.910 
06:05	66.6	66.6	66.6	70	56.5	0	1	315	0.00	29.918 
06:10	66.6	66.6	66.6	70	56.5	0	1	315	0.00	29.920 
06:15	66.8	66.8	66.8	71	57.1	0	2	315	0.00	29.927 
06:20	66.6	66.6	66.6	73	57.7	0	2	315	0.00	29.931 
06:25	66.4	66.4	66.4	74	57.9	0	1	315	0.00	29.935 
06:30	66.3	66.3	66.3	76	58.5	0	1	315	0.00	29.941 
06:35	66.1	66.1	66.1	76	58.3	0	3	315	0.00	29.944 
06:40	66.0	66.0	66.0	76	58.2	0	2	292	0.00	29.947 
06:45	65.6	65.6	65.6	76	57.8	0	3	292	0.00	29.945 
06:50	65.5	65.5	65.5	76	57.7	0	3	292	0.00	29.949 
06:55	65.3	65.3	65.3	75	57.2	1	4	270	0.00	29.956 
07:00	65.3	65.3	65.3	75	57.2	1	2	292	0.00	29.958 
07:05	65.2	65.2	65.2	76	57.4	1	4	315	0.00	29.964 
07:10	65.0	65.0	65.0	76	57.2	0	3	315	0.00	29.966 
07:15	65.0	65.0	65.0	76	57.2	0	2	315	0.00	29.975 
07:20	64.7	64.7	64.7	74	56.2	1	4	315	0.00	29.978 
07:25	64.5	64.5	64.5	74	56.0	0	1	315	0.00	29.980 
07:30	64.3	64.3	64.3	72	55.1	1	4	315	0.00	29.984 
07:35	64.2	64.2	64.2	72	55.0	1	4	270	0.00	29.985 
07:40	64.2	64.2	64.2	71	54.6	0	2	292	0.00	29.988 
07:45	64.3	64.3	64.3	72	55.1	0	2	315	0.00	29.993 
07:50	64.3	64.3	64.3	70	54.3	0	3	315	0.00	29.995 
07:55	64.5	64.5	64.5	70	54.5	1	4	270	0.00	29.993 
08:00	64.7	64.7	64.7	69	54.3	1	4	270	0.00	29.995 
08:05	64.7	64.7	64.7	68	53.9	1	2	292	0.00	29.996 
08:10	64.3	64.3	64.3	68	53.5	1	5	315	0.00	29.998 
08:15	64.3	64.3	64.3	67	53.1	1	5	315	0.00	29.999 
08:20	64.5	64.5	64.5	68	53.7	0	3	270	0.00	30.001 
08:25	64.5	64.5	64.5	67	53.3	1	2	292	0.00	30.012 
08:30	64.3	64.3	64.3	67	53.1	1	3	45	0.00	30.013 
08:35	64.5	64.5	64.5	67	53.3	0	2	0	0.00	30.014 
08:40	64.7	64.7	64.7	66	53.1	0	3	315	0.00	30.017 
08:45	64.7	64.7	64.7	65	52.7	1	4	292	0.00	30.017 
08:50	65.2	65.2	65.2	66	53.5	0	1	292	0.00	30.017 
08:55	65.5	65.5	65.5	65	53.4	0	3	45	0.00	30.016 
09:00	65.8	65.8	65.8	63	52.8	1	2	315	0.00	30.017 
09:05	66.1	66.1	66.1	62	52.7	1	4	45	0.00	30.019 
09:10	66.6	66.6	66.6	63	53.6	1	5	135	0.00	30.024 
09:15	66.9	66.9	66.9	61	53.0	1	3	338	0.00	30.024 
09:20	67.3	67.3	67.3	62	53.8	0	3	292	0.00	30.023 
09:25	67.9	67.9	67.9	60	53.5	0	2	0	0.00	30.023 
09:30	68.8	68.8	68.8	59	53.9	0	2	22	0.00	30.023 
09:35	69.1	69.1	69.1	57	53.2	1	3	0	0.00	30.025 
09:40	69.1	69.1	69.1	57	53.2	0	3	68	0.00	30.026 
09:45	69.3	69.3	69.3	57	53.4	1	3	0	0.00	30.027 
09:50	69.3	69.3	69.3	55	52.4	0	2	68	0.00	30.029 
09:55	69.6	69.6	69.6	54	52.2	0	2	45	0.00	30.032 
10:00	69.9	69.9	69.9	54	52.5	0	3	45	0.00	30.034 
10:05	69.6	69.6	69.6	54	52.2	0	2	315	0.00	30.036 
10:10	69.6	69.6	69.6	53	51.7	0	2	315	0.00	30.033 
10:15	69.8	69.8	69.8	54	52.4	1	3	338	0.00	30.032 
10:20	69.8	69.8	69.8	53	51.9	1	2	22	0.00	30.031 
10:25	70.1	70.1	70.1	52	51.6	1	4	225	0.00	30.035 
10:30	70.4	70.4	70.4	53	52.4	0	2	315	0.00	30.037 
10:35	70.8	70.8	70.8	49	50.7	1	4	315	0.00	30.041 
10:40	71.1	71.1	71.1	50	51.5	1	2	270	0.00	30.040 
10:45	70.9	70.9	70.9	49	50.8	0	1	315	0.00	30.043 
10:50	71.3	71.3	71.3	49	51.1	0	2	315	0.00	30.045 
10:55	71.5	71.5	71.5	48	50.8	0	1	315	0.00	30.045 
11:00	71.8	71.8	71.8	50	52.1	1	4	292	0.00	30.046 
11:05	71.8	71.8	71.8	50	52.1	0	3	292	0.00	30.049 
11:10	72.5	72.5	72.5	48	51.7	1	4	90	0.00	30.048 
11:15	72.5	72.5	72.5	47	51.1	1	3	248	0.00	30.049 
11:20	72.7	72.7	72.7	49	52.4	0	3	68	0.00	30.049 
11:25	72.5	72.5	72.5	43	48.7	1	3	270	0.00	30.046 
11:30	72.3	72.3	72.3	46	50.3	0	2	315	0.00	30.050 
11:35	72.7	72.7	72.7	43	48.9	1	4	292	0.00	30.051 
11:40	73.0	73.0	73.0	44	49.8	0	1	292	0.00	30.051 
11:45	73.7	73.7	73.7	45	51.0	1	4	135	0.00	30.054 
11:50	74.2	74.2	74.2	40	48.3	1	3	270	0.00	30.055 
11:55	74.0	74.0	74.0	40	48.1	1	3	315	0.00	30.056 
12:00	74.2	74.2	74.2	41	49.0	0	3	292	0.00	30.055 
12:05	74.4	74.4	74.4	39	47.8	1	5	292	0.00	30.054 
12:10	74.4	74.4	74.4	38	47.1	0	2	45	0.00	30.055 
12:15	74.7	74.7	74.7	37	46.7	0	3	0	0.00	30.054 
12:20	74.9	74.9	74.9	37	46.9	1	2	0	0.00	30.054 
12:25	75.1	75.1	77.4	37	47.0	1	3	0	0.00	30.054 
12:30	75.4	75.4	77.6	40	49.4	1	3	22	0.00	30.054 
12:35	75.3	75.3	77.5	38	47.9	0	3	315	0.00	30.056 
12:40	75.4	75.4	77.6	39	48.7	0	2	315	0.00	30.054 
12:45	75.6	75.6	77.5	36	46.7	0	2	315	0.00	30.055 
12:50	75.8	75.8	77.7	39	49.1	1	4	338	0.00	30.053 
12:55	76.1	76.1	77.6	34	45.7	1	2	112	0.00	30.053 
13:00	76.0	76.0	77.7	37	47.8	0	3	90	0.00	30.054 
13:05	76.1	76.1	77.4	32	44.1	1	4	270	0.00	30.052 
13:10	76.1	76.1	77.5	33	44.9	0	2	0	0.00	30.052 
13:15	76.7	76.7	77.9	36	47.7	0	2	45	0.00	30.052 
13:20	76.7	76.7	77.8	34	46.2	1	3	45	0.00	30.053 
13:25	76.7	76.7	77.7	32	44.6	0	1	292	0.00	30.052 
13:30	76.5	76.5	77.8	35	46.8	0	1	315	0.00	30.052 
13:35	76.7	76.7	77.9	35	47.0	1	3	112	0.00	30.052 
13:40	76.7	76.7	77.9	35	47.0	0	2	112	0.00	30.052 
13:45	76.8	76.8	77.7	31	43.9	0	1	112	0.00	30.052 
13:50	77.2	77.2	77.8	31	44.2	0	2	112	0.00	30.053 
13:55	77.2	77.2	77.7	29	42.5	0	2	112	0.00	30.053 
14:00	77.2	77.2	77.9	33	45.8	1	3	0	0.00	30.052 
14:05	77.4	77.4	78.1	34	46.8	0	2	0	0.00	30.054 
14:10	77.6	77.6	77.9	30	43.7	1	2	338	0.00	30.052 
14:15	77.4	77.4	78.0	32	45.2	0	2	338	0.00	30.057 
14:20	76.8	76.8	77.6	30	43.0	0	2	338	0.00	30.056 
14:25	77.2	77.2	78.0	34	46.6	0	2	315	0.00	30.054 
14:30	77.4	77.4	77.7	28	41.7	1	4	315	0.00	30.054 
14:35	77.6	77.6	78.1	33	46.2	0	2	315	0.00	30.054 
14:40	77.6	77.6	78.1	33	46.2	0	2	315	0.00	30.053 
14:45	77.7	77.7	78.2	33	46.3	0	2	270	0.00	30.051 
14:50	77.7	77.7	77.8	28	42.0	1	3	292	0.00	30.052 
14:55	77.6	77.6	78.0	31	44.5	0	2	292	0.00	30.052 
15:00	77.4	77.4	77.9	31	44.4	1	3	292	0.00	30.053 
15:05	77.6	77.6	78.2	34	47.0	0	3	68	0.00	30.053 
15:10	77.6	77.6	78.0	31	44.5	0	1	68	0.00	30.053 
15:15	77.4	77.4	78.0	32	45.2	0	2	68	0.00	30.052 
15:20	77.2	77.2	77.8	31	44.2	1	3	338	0.00	30.053 
15:25	77.2	77.2	77.8	30	43.3	0	3	0	0.00	30.054 
15:30	77.2	77.2	77.8	31	44.2	0	3	0	0.00	30.053 
15:35	77.2	77.2	77.8	31	44.2	0	1	90	0.00	30.053 
15:40	77.2	77.2	77.6	28	41.6	1	3	315	0.00	30.053 
15:45	76.8	76.8	77.4	27	40.3	1	3	315	0.00	30.054 
15:50	76.7	76.7	77.5	29	42.0	0	2	315	0.00	30.056 
15:55	76.5	76.5	77.3	28	41.0	0	2	315	0.00	30.056 
16:00	76.5	76.5	77.5	30	42.7	0	2	315	0.00	30.061 
16:05	76.3	76.3	77.4	30	42.6	0	1	315	0.00	30.064 
16:10	76.1	76.1	77.4	31	43.3	0	3	22	0.00	30.067 
16:15	76.0	76.0	77.3	30	42.3	0	3	22	0.00	30.066 
16:20	75.8	75.8	77.3	31	43.0	0	1	338	0.00	30.067 
16:25	75.8	75.8	77.3	31	43.0	1	2	315	0.00	30.069 
16:30	75.6	75.6	77.4	34	45.2	0	1	315	0.00	30.068 
16:35	75.4	75.4	77.3	34	45.1	0	2	292	0.00	30.069 
16:40	75.4	75.4	77.4	35	45.8	0	2	292	0.00	30.069 
16:45	75.3	75.3	77.3	34	45.0	0	3	270	0.00	30.069 
16:50	75.1	75.1	77.4	37	47.0	0	1	270	0.00	30.069 
16:55	74.9	74.9	74.9	37	46.9	0	1	270	0.00	30.067 
17:00	74.9	74.9	74.9	36	46.1	0	1	270	0.00	30.067 
17:05	74.7	74.7	74.7	36	46.0	0	1	270	0.00	30.072 
17:10	74.6	74.6	74.6	36	45.9	0	1	270	0.00	30.071 
17:15	74.4	74.4	74.4	36	45.7	0	1	270	0.00	30.072 
17:20	74.2	74.2	74.2	34	44.0	0	1	270	0.00	30.072 
17:25	74.2	74.2	74.2	35	44.8	0	1	292	0.00	30.073 
17:30	73.9	73.9	73.9	36	45.2	0	1	292	0.00	30.073 
17:35	73.7	73.7	73.7	36	45.1	0	1	292	0.00	30.074 
17:40	73.3	73.3	73.3	36	44.7	0	1	292	0.00	30.074 
17:45	73.2	73.2	73.2	36	44.6	0	1	292	0.00	30.077 
17:50	73.0	73.0	73.0	38	45.9	0	1	292	0.00	30.076 
17:55	72.7	72.7	72.7	39	46.3	0	0	---	0.00	30.075 
18:00	72.3	72.3	72.3	40	46.6	0	0	---	0.00	30.075 
18:05	72.0	72.0	72.0	41	47.0	0	0	---	0.00	30.077 
18:10	71.5	71.5	71.5	42	47.2	0	0	---	0.00	30.077 
18:15	70.9	70.9	70.9	43	47.3	0	0	---	0.00	30.078 
18:20	70.4	70.4	70.4	43	46.8	0	0	---	0.00	30.078 
18:25	70.1	70.1	70.1	43	46.6	0	0	---	0.00	30.079 
18:30	69.4	69.4	69.4	45	47.1	0	0	---	0.00	30.079 
18:35	68.8	68.8	68.8	46	47.2	0	0	---	0.00	30.079 
18:40	67.9	67.9	67.9	48	47.5	0	0	---	0.00	30.081 
18:45	67.3	67.3	67.3	50	48.0	0	0	---	0.00	30.081 
18:50	66.4	66.4	66.4	53	48.7	0	0	---	0.00	30.081 
18:55	65.8	65.8	65.8	54	48.7	0	0	---	0.00	30.083 
19:00	65.3	65.3	65.3	56	49.2	0	0	---	0.00	30.083 
19:05	64.5	64.5	64.5	59	49.8	0	0	---	0.00	30.084 
19:10	63.9	63.9	63.9	59	49.3	0	0	---	0.00	30.085 
19:15	63.2	63.2	63.2	60	49.1	0	0	---	0.00	30.087 
19:20	62.6	62.6	62.6	61	49.0	0	0	---	0.00	30.087 
19:25	62.0	62.0	62.0	64	49.7	0	0	---	0.00	30.094 
19:30	61.5	61.5	61.5	65	49.6	0	0	---	0.00	30.092 
19:35	61.0	61.0	61.0	67	50.0	0	0	---	0.00	30.094 
19:40	60.5	60.5	60.5	68	49.9	0	0	---	0.00	30.096 
19:45	60.2	60.2	60.2	69	50.0	0	0	---	0.00	30.098 
19:50	59.9	59.9	59.9	69	49.7	0	0	---	0.00	30.099 
19:55	59.5	59.5	59.5	70	49.7	0	0	---	0.00	30.099 
20:00	59.2	59.2	59.2	72	50.2	0	0	---	0.00	30.099 
20:05	58.9	58.9	58.9	73	50.3	0	0	---	0.00	30.101 
20:10	58.6	58.6	58.6	74	50.3	0	0	---	0.00	30.102 
20:15	58.3	58.3	58.3	74	50.0	0	0	---	0.00	30.103 
20:20	58.0	58.0	58.0	74	49.8	0	0	---	0.00	30.106 
20:25	57.5	57.5	57.5	75	49.6	0	0	---	0.00	30.107 
20:30	57.2	57.2	57.2	75	49.3	0	0	---	0.00	30.109 
20:35	56.9	56.9	56.9	77	49.8	0	0	---	0.00	30.112 
20:40	56.6	56.6	56.6	77	49.5	0	0	---	0.00	30.113 
20:45	56.3	56.3	56.3	78	49.5	0	0	---	0.00	30.113 
20:50	56.0	56.0	56.0	79	49.6	0	0	---	0.00	30.115 
20:55	55.9	55.9	55.9	80	49.8	0	0	---	0.00	30.117 
21:00	55.6	55.6	55.6	80	49.5	0	0	---	0.00	30.117 
21:05	55.4	55.4	55.4	81	49.7	0	0	---	0.00	30.117 
21:10	55.1	55.1	55.1	82	49.7	0	0	---	0.00	30.118 
21:15	55.0	55.0	55.0	82	49.6	0	0	---	0.00	30.118 
21:20	54.8	54.8	54.8	82	49.4	0	0	---	0.00	30.119 
21:25	54.7	54.7	54.7	82	49.3	0	0	---	0.00	30.120 
21:30	54.4	54.4	54.4	82	49.0	0	0	---	0.00	30.121 
21:35	54.2	54.2	54.2	83	49.1	0	0	---	0.00	30.122 
21:40	54.1	54.1	54.1	83	49.1	0	0	---	0.00	30.124 
21:45	53.9	53.9	53.9	83	48.9	0	0	---	0.00	30.127 
21:50	53.9	53.9	53.9	84	49.2	0	0	---	0.00	30.129 
21:55	53.8	53.8	53.8	84	49.1	0	0	---	0.00	30.130 
22:00	53.8	53.8	53.8	85	49.4	0	0	---	0.00	30.129 
22:05	53.6	53.6	53.6	86	49.5	0	0	---	0.00	30.127 
22:10	53.5	53.5	53.5	86	49.4	0	0	---	0.00	30.127 
22:15	53.3	53.3	53.3	87	49.5	0	0	---	0.00	30.130 
22:20	53.1	53.1	53.1	87	49.3	0	0	---	0.00	30.131 
22:25	52.9	52.9	52.9	88	49.4	0	0	---	0.00	30.131 
22:30	52.8	52.8	52.8	88	49.3	0	0	---	0.00	30.131 
22:35	52.8	52.8	52.8	89	49.6	0	0	---	0.00	30.131 
22:40	52.6	52.6	52.6	89	49.4	0	0	---	0.00	30.133 
22:45	52.5	52.5	52.5	89	49.4	0	0	---	0.00	30.132 
22:50	52.5	52.5	52.5	90	49.7	0	0	---	0.00	30.130 
22:55	52.3	52.3	52.3	90	49.5	0	0	---	0.00	30.131 
23:00	52.2	52.2	52.2	90	49.4	0	0	---	0.00	30.132 
23:05	52.2	52.2	52.2	91	49.7	0	0	---	0.00	30.130 
23:10	52.0	52.0	52.0	91	49.5	0	0	---	0.00	30.131 
23:15	51.9	51.9	51.9	91	49.4	0	0	---	0.00	30.132 
23:20	51.7	51.7	51.7	91	49.2	0	0	---	0.00	30.132 
23:25	51.6	51.6	51.6	91	49.1	0	0	---	0.00	30.132 
23:30	51.4	51.4	51.4	91	48.9	0	0	---	0.00	30.133 
23:35	51.3	51.3	51.3	90	48.5	0	0	---	0.00	30.133 
23:40	51.1	51.1	51.1	91	48.6	0	0	---	0.00	30.133 
23:45	51.1	51.1	51.1	91	48.6	0	0	---	0.00	30.135 
23:50	51.1	51.1	51.1	91	48.6	0	0	---	0.00	30.136 
23:55	51.1	51.1	51.1	91	48.6	0	0	---	0.00	30.136 

CoCoRaHS
IN-AL-39
A2 Web Hosting
Creative Commons License
GoDaddy
Look for:

loaded 2017-10-17 18:17:49 • last modified 2010-11-18 10:43:29
Privacy PolicyDisclaimer
• wx.awcolley.com is powered by PmWiki v.2002016 •
• all content (unless otherwise noted) © 2017 A W Colley